Oscoda, MI

2:58 PM EST on December 17, 2014 (GMT -0500)
Oscoda-Wurtsmith | Change Station
CLOSE
Current Station
Airport
Location: Oscoda,
Elevation: 633 ft
Nearby Weather Stations

Elev 633 ft 44.45 °N, 83.39 °W | Updated 5 minutes ago

Overcast
Overcast
32 °F
Feels Like 26 °F
N
6
Wind Variable Wind from WNW

Today
High -- | Low -- °F
--% Chance of Precip.
Yesterday
High -- | Low -- °F
Precip. -- in
8:04 AM 4:55 PM
Waning Crescent, 20% visible
Pressure 29.94 in
Visibility 7.0 miles
Clouds Mostly Cloudy 1600 ft
Overcast 2400 ft
Windchill 26 °F
Dew Point 29 °F
Humidity 88%
Rainfall 0.01 in
Snow Depth Not available.
UV 0 out of 12
Pollen .10 out of 12
Air Quality Not available.
Flu Activity Not available.
METAR KOSC 171953Z AUTO 29005KT 7SM -SN BKN016 OVC024 00/M01 A2994 RMK AO2 T00001017

More Conditions Fewer Conditions

Pressure 29.94 in
Visibility 7.0 miles
Clouds Mostly Cloudy 1600 ft
Overcast 2400 ft
Windchill 26 °F
Dew Point 29 °F
Humidity 88%
Rainfall 0.01 in
Snow Depth Not available.
UV 0 out of 12
Pollen .10 out of 12
Air Quality Not available.
Flu Activity Not available.
METAR KOSC 171953Z AUTO 29005KT 7SM -SN BKN016 OVC024 00/M01 A2994 RMK AO2 T00001017

More Conditions Fewer Conditions

Nowcast | as of 2:00 PM EST on December 17, 2014

At 3 PM...periods of snow. Temperature 33. Northwest winds 15 mph. At 5 PM...periods of snow. Temperature 31. Northwest winds 13 mph. At 7 PM...cloudy. Occasional flurries. Temperature 30. Northwest winds 10 mph. At 9 PM...cloudy. Occasional flurries. Temperature 28. Northwest winds 9 mph.

×

10-Day Weather Forecast

Almanac

Astronomy

Dec. 17, 2014 Rise Set
Actual Time
Civil Twilight
Nautical Twilight
Astronomical Twilight
Moon
Length of Visible Light
Length of Day
Tomorrow will be .
, % of the Moon is Illuminated

Today's Extremes

State Highs State Lows

Community

WunderPhotos

Upload Photos

1,778,797 photos uploaded!

WunderBlogs® & News

Nearby

Air Quality

  Air Quality AQ Index Pollutant
Not available.

Snow Depth

Station Depth Elevation

Earthquake Activity

City Distance Mag. Time & Date
Minimum magnitude displayed is 2.5.

Coastal Water Temperatures

Place Temperature

Nearby Weather Stations